createdAt,value
2019-02-09T00:01:43.555Z,99646.12
2019-02-09T00:04:13.188Z,99647.50
2019-02-09T00:06:42.509Z,99633.03
2019-02-09T00:09:12.811Z,99645.37
2019-02-09T00:11:42.421Z,99639.27
2019-02-09T00:14:12.297Z,99618.71
2019-02-09T00:16:41.616Z,99614.76
2019-02-09T00:19:11.210Z,99617.84
2019-02-09T00:21:40.825Z,99623.86
2019-02-09T00:24:10.394Z,99612.77
2019-02-09T00:26:41.651Z,99607.77
2019-02-09T00:29:11.280Z,99594.38
2019-02-09T00:31:40.894Z,99588.80
2019-02-09T00:34:10.770Z,99588.80
2019-02-09T00:36:40.687Z,99589.20
2019-02-09T00:39:10.915Z,99588.22
2019-02-09T00:41:40.777Z,99579.09
2019-02-09T00:44:10.332Z,99579.34
2019-02-09T00:46:39.647Z,99582.02
2019-02-09T00:49:09.227Z,99580.97
2019-02-09T00:51:38.850Z,99578.98
2019-02-09T00:54:08.453Z,99577.30
2019-02-09T00:56:37.774Z,99575.97
2019-02-09T00:59:07.434Z,99568.64
2019-02-09T01:01:37.044Z,99561.61
2019-02-09T01:04:06.484Z,99572.95
2019-02-09T01:06:35.802Z,99570.49
2019-02-09T01:09:08.588Z,99567.45
2019-02-09T01:11:38.016Z,99570.27
2019-02-09T01:14:07.785Z,99574.77
2019-02-09T01:16:40.004Z,99572.73
2019-02-09T01:19:09.596Z,99569.80
2019-02-09T01:21:38.937Z,99575.92
2019-02-09T01:24:08.469Z,99565.20
2019-02-09T01:26:37.791Z,99550.45
2019-02-09T01:29:09.882Z,99544.79
2019-02-09T01:31:39.703Z,99541.38
2019-02-09T01:34:09.023Z,99541.38
2019-02-09T01:36:38.657Z,99529.57
2019-02-09T01:39:07.972Z,99529.13
2019-02-09T01:41:37.606Z,99522.09
2019-02-09T01:44:08.047Z,99521.05
2019-02-09T01:46:37.750Z,99518.47
2019-02-09T01:49:07.086Z,99508.84
2019-02-09T01:51:50.725Z,99504.31
2019-02-09T01:54:28.931Z,99512.36
2019-02-09T01:57:03.490Z,99498.73
2019-02-09T01:59:36.472Z,99494.13
2019-02-09T02:02:06.080Z,99499.34
2019-02-09T02:04:35.763Z,99496.67
2019-02-09T02:07:05.408Z,99493.52
2019-02-09T02:09:34.828Z,99504.59
2019-02-09T02:12:05.144Z,99494.31
2019-02-09T02:14:34.516Z,99487.36
2019-02-09T02:17:03.859Z,99512.83
2019-02-09T02:19:33.764Z,99502.22
2019-02-09T02:22:03.099Z,99495.30
2019-02-09T02:24:33.999Z,99484.94
2019-02-09T02:27:03.685Z,99481.78
2019-02-09T02:29:33.327Z,99482.18
2019-02-09T02:32:02.650Z,99477.08
2019-02-09T02:34:32.012Z,99472.95
2019-02-09T02:37:01.634Z,99479.56
2019-02-09T02:39:32.373Z,99465.19
2019-02-09T02:42:01.992Z,99466.67
2019-02-09T02:44:32.182Z,99458.38
2019-02-09T02:47:03.114Z,99441.83
2019-02-09T02:49:33.044Z,99453.38
2019-02-09T02:52:03.195Z,99433.03
2019-02-09T02:54:33.622Z,99422.57
2019-02-09T02:57:03.212Z,99423.55
2019-02-09T02:59:32.846Z,99423.69
2019-02-09T03:02:02.189Z,99421.52
2019-02-09T03:04:32.694Z,99425.03
2019-02-09T03:07:02.030Z,99412.97
2019-02-09T03:09:32.029Z,99419.17
2019-02-09T03:12:01.661Z,99411.48
2019-02-09T03:14:31.988Z,99428.91
2019-02-09T03:17:02.993Z,99423.44
2019-02-09T03:19:32.257Z,99395.81
2019-02-09T03:22:02.876Z,99399.07
2019-02-09T03:24:32.201Z,99399.07
2019-02-09T03:27:01.853Z,99385.45
2019-02-09T03:29:32.080Z,99385.45
2019-02-09T03:32:01.733Z,99386.03
2019-02-09T03:34:32.122Z,99390.70
2019-02-09T03:37:02.760Z,99390.70
2019-02-09T03:39:33.158Z,99406.59
2019-02-09T03:42:02.739Z,99420.07
2019-02-09T03:44:32.166Z,99397.29
2019-02-09T03:47:01.840Z,99402.87
2019-02-09T03:49:32.077Z,99402.87
2019-02-09T03:52:01.411Z,99414.77
2019-02-09T03:54:32.226Z,99410.10
2019-02-09T03:57:01.752Z,99420.83
2019-02-09T03:59:32.106Z,99420.83
2019-02-09T04:02:01.732Z,99427.52
2019-02-09T04:04:32.365Z,99422.67
2019-02-09T04:07:01.996Z,99421.33
2019-02-09T04:09:31.317Z,99418.80
2019-02-09T04:12:00.971Z,99429.59
2019-02-09T04:14:30.287Z,99423.72
2019-02-09T04:16:59.952Z,99421.29
2019-02-09T04:19:30.087Z,99411.91
2019-02-09T04:21:59.426Z,99412.19
2019-02-09T04:24:28.975Z,99412.50
2019-02-09T04:26:58.309Z,99400.86
2019-02-09T04:29:27.901Z,99387.46
2019-02-09T04:31:57.235Z,99396.02
2019-02-09T04:34:26.797Z,99414.37
2019-02-09T04:36:56.134Z,99412.89
2019-02-09T04:39:25.519Z,99406.19
2019-02-09T04:41:54.986Z,99410.92
2019-02-09T04:44:24.344Z,99410.56
2019-02-09T04:46:54.290Z,99406.49
2019-02-09T04:49:23.626Z,99406.49
2019-02-09T04:51:53.104Z,99414.53
2019-02-09T04:54:22.442Z,99421.86
2019-02-09T04:56:51.948Z,99410.52
2019-02-09T04:59:21.529Z,99413.20
2019-02-09T05:01:51.005Z,99407.00
2019-02-09T05:04:21.443Z,99415.52
2019-02-09T05:06:51.155Z,99408.34
2019-02-09T05:09:20.494Z,99405.87
2019-02-09T05:11:50.110Z,99409.48
2019-02-09T05:14:19.442Z,99420.28
2019-02-09T05:16:49.356Z,99415.89
2019-02-09T05:19:18.712Z,99418.58
2019-02-09T05:21:48.336Z,99419.85
2019-02-09T05:24:17.686Z,99421.81
2019-02-09T05:26:48.649Z,99412.48
2019-02-09T05:29:18.056Z,99408.45
2019-02-09T05:31:47.701Z,99389.11
2019-02-09T05:34:17.219Z,99413.70
2019-02-09T05:36:46.561Z,99410.58
2019-02-09T05:39:16.098Z,99409.75
2019-02-09T05:41:47.193Z,99423.42
2019-02-09T05:44:16.545Z,99429.48
2019-02-09T05:46:46.440Z,99433.81
2019-02-09T05:49:15.784Z,99451.31
2019-02-09T05:51:45.648Z,99447.95
2019-02-09T05:54:15.189Z,99442.13
2019-02-09T05:56:44.512Z,99442.13
2019-02-09T05:59:14.141Z,99462.97
2019-02-09T06:01:43.517Z,99462.97
2019-02-09T06:04:14.479Z,99460.66
2019-02-09T06:06:45.180Z,99466.23
2019-02-09T06:09:14.775Z,99467.94
2019-02-09T06:11:44.413Z,99465.40
2019-02-09T06:14:13.759Z,99464.20
2019-02-09T06:16:43.425Z,99467.63
2019-02-09T06:19:12.818Z,99464.37
2019-02-09T06:21:42.338Z,99470.11
2019-02-09T06:24:11.672Z,99478.01
2019-02-09T06:26:41.335Z,99487.38
2019-02-09T06:29:10.915Z,99483.00
2019-02-09T06:31:41.324Z,99498.09
2019-02-09T06:34:11.160Z,99500.27
2019-02-09T06:36:40.518Z,99496.53
2019-02-09T06:39:10.179Z,99475.72
2019-02-09T06:41:39.515Z,99500.77
2019-02-09T06:44:10.247Z,99505.88
2019-02-09T06:46:41.344Z,99484.95
2019-02-09T06:49:10.688Z,99494.78
2019-02-09T06:51:40.569Z,99508.17
2019-02-09T06:54:09.905Z,99503.28
2019-02-09T06:56:39.891Z,99502.17
2019-02-09T06:59:09.390Z,99503.66
2019-02-09T07:01:38.704Z,99503.66
2019-02-09T07:04:08.705Z,99518.03
2019-02-09T07:06:38.327Z,99519.23
2019-02-09T07:09:08.343Z,99523.36
2019-02-09T07:11:37.674Z,99524.53
2019-02-09T07:14:07.363Z,99530.42
2019-02-09T07:16:36.734Z,99530.42
2019-02-09T07:19:06.594Z,99525.87
2019-02-09T07:21:37.878Z,99528.63
2019-02-09T07:24:07.383Z,99524.72
2019-02-09T07:26:36.732Z,99524.72
2019-02-09T07:29:06.346Z,99539.79
2019-02-09T07:31:35.975Z,99542.08
2019-02-09T07:34:05.476Z,99529.36
2019-02-09T07:36:34.818Z,99548.85
2019-02-09T07:39:07.287Z,99550.30
2019-02-09T07:41:36.864Z,99558.34
2019-02-09T07:44:06.613Z,99571.00
2019-02-09T07:46:36.897Z,99571.00
2019-02-09T07:49:07.497Z,99577.96
2019-02-09T07:51:36.834Z,99585.36
2019-02-09T07:54:06.393Z,99592.72
2019-02-09T07:56:35.717Z,99579.45
2019-02-09T07:59:05.734Z,99583.83
2019-02-09T08:01:35.310Z,99583.62
2019-02-09T08:04:05.184Z,99590.94
2019-02-09T08:06:34.792Z,99582.67
2019-02-09T08:09:07.856Z,99593.37
2019-02-09T08:11:37.722Z,99587.13
2019-02-09T08:14:07.806Z,99597.86
2019-02-09T08:16:37.157Z,99601.41
2019-02-09T08:19:06.623Z,99598.19
2019-02-09T08:21:37.889Z,99602.06
2019-02-09T08:24:07.558Z,99627.13
2019-02-09T08:26:36.876Z,99612.69
2019-02-09T08:29:06.758Z,99615.66
2019-02-09T08:31:36.959Z,99621.39
2019-02-09T08:34:06.647Z,99632.12
2019-02-09T08:36:35.969Z,99639.20
2019-02-09T08:39:07.488Z,99630.23
2019-02-09T08:41:37.048Z,99629.61
2019-02-09T08:44:06.692Z,99623.12
2019-02-09T08:46:36.014Z,99621.37
2019-02-09T08:49:05.596Z,99609.80
2019-02-09T08:51:35.445Z,99609.65
2019-02-09T08:54:04.786Z,99602.57
2019-02-09T08:56:34.700Z,99605.95
2019-02-09T08:59:06.529Z,99605.95
2019-02-09T09:01:35.897Z,99620.23
2019-02-09T09:04:05.580Z,99607.75
2019-02-09T09:06:34.939Z,99614.13
2019-02-09T09:09:07.869Z,99608.67
2019-02-09T09:11:37.217Z,99623.18
2019-02-09T09:14:07.036Z,99614.22
2019-02-09T09:16:36.676Z,99616.70
2019-02-09T09:19:07.592Z,99635.71
2019-02-09T09:21:36.946Z,99622.08
2019-02-09T09:24:06.682Z,99606.78
2019-02-09T09:26:36.310Z,99620.94
2019-02-09T09:29:05.824Z,99600.77
2019-02-09T09:31:35.156Z,99618.95
2019-02-09T09:34:05.271Z,99633.72
2019-02-09T09:36:34.934Z,99649.51
2019-02-09T09:39:07.744Z,99648.79
2019-02-09T09:41:45.805Z,99657.17
2019-02-09T09:44:15.135Z,99662.20
2019-02-09T09:46:44.801Z,99671.48
2019-02-09T09:49:14.136Z,99668.91
2019-02-09T09:51:43.864Z,99665.59
2019-02-09T09:54:13.210Z,99670.19
2019-02-09T09:56:43.110Z,99677.83
2019-02-09T09:59:12.738Z,99674.28
2019-02-09T10:01:42.201Z,99664.01
2019-02-09T10:04:12.311Z,99672.42
2019-02-09T10:06:44.314Z,99670.01
2019-02-09T10:09:14.124Z,99683.29
2019-02-09T10:11:43.750Z,99663.73
2019-02-09T10:14:13.095Z,99684.20
2019-02-09T10:16:42.723Z,99678.88
2019-02-09T10:19:12.348Z,99675.87
2019-02-09T10:21:41.970Z,99676.61
2019-02-09T10:24:12.425Z,99659.88
2019-02-09T10:26:42.001Z,99688.85
2019-02-09T10:29:11.806Z,99664.30
2019-02-09T10:31:42.542Z,99686.95
2019-02-09T10:34:12.071Z,99695.47
2019-02-09T10:36:41.690Z,99692.12
2019-02-09T10:39:11.961Z,99692.12
2019-02-09T10:41:41.291Z,99686.33
2019-02-09T11:24:28.482Z,99733.34
2019-02-09T11:26:58.204Z,99713.94
2019-02-09T11:29:27.545Z,99707.43
2019-02-09T11:31:57.238Z,99696.54
2019-02-09T11:34:27.404Z,99693.02
2019-02-09T11:36:56.970Z,99702.53
2019-02-09T11:39:26.362Z,99690.95
2019-02-09T11:41:55.917Z,99684.83
2019-02-09T11:44:25.246Z,99689.56
2019-02-09T11:46:55.940Z,99678.65
2019-02-09T11:49:25.445Z,99674.55
2019-02-09T11:51:54.928Z,99683.50
2019-02-09T11:54:24.276Z,99684.73
2019-02-09T11:56:53.942Z,99673.98
2019-02-09T11:59:23.510Z,99673.05
2019-02-09T12:01:53.147Z,99671.44
2019-02-09T12:04:22.714Z,99690.67
2019-02-09T12:06:52.219Z,99695.06
2019-02-09T12:09:21.561Z,99686.06
2019-02-09T12:11:50.998Z,99689.73
2019-02-09T12:14:20.320Z,99684.79
2019-02-09T12:16:49.750Z,99691.77
2019-02-09T12:19:19.087Z,99696.03
2019-02-09T12:21:48.451Z,99695.29
2019-02-09T12:24:19.568Z,99690.41
2019-02-09T12:26:49.355Z,99699.64
2019-02-09T12:29:18.682Z,99689.23
2019-02-09T12:31:48.344Z,99697.38
2019-02-09T12:34:17.681Z,99695.68
2019-02-09T12:36:47.629Z,99677.70
2019-02-09T12:39:17.184Z,99705.34
2019-02-09T12:41:46.838Z,99684.70
2019-02-09T12:44:16.231Z,99692.38
2019-02-09T12:46:45.607Z,99690.95
2019-02-09T12:49:15.162Z,99680.86
2019-02-09T12:51:46.071Z,99686.80
2019-02-09T12:54:15.408Z,99688.09
2019-02-09T12:56:45.146Z,99690.70
2019-02-09T12:59:15.326Z,99658.27
2019-02-09T13:01:44.753Z,99685.48
2019-02-09T13:04:14.400Z,99693.56
2019-02-09T13:06:45.215Z,99695.27
2019-02-09T13:09:15.262Z,99704.37
2019-02-09T13:11:44.995Z,99689.79
2019-02-09T13:14:15.008Z,99689.25
2019-02-09T13:16:44.693Z,99685.83
2019-02-09T13:19:14.496Z,99698.14
2019-02-09T13:21:44.307Z,99694.81
2019-02-09T13:24:13.667Z,99679.48
2019-02-09T13:26:43.760Z,99704.11
2019-02-09T13:29:13.369Z,99712.88
2019-02-09T13:31:44.511Z,99708.15
2019-02-09T13:34:14.429Z,99694.20
2019-02-09T13:36:43.779Z,99692.38
2019-02-09T13:39:13.326Z,99677.86
2019-02-09T13:41:42.977Z,99675.16
2019-02-09T13:44:12.462Z,99697.70
2019-02-09T13:46:41.829Z,99687.45
2019-02-09T13:49:11.502Z,99667.22
2019-02-09T13:51:40.837Z,99679.12
2019-02-09T13:54:10.338Z,99690.42
2019-02-09T13:56:42.336Z,99665.81
2019-02-09T13:59:11.728Z,99684.41
2019-02-09T14:01:41.350Z,99695.60
2019-02-09T14:04:10.696Z,99704.66
2019-02-09T14:06:40.047Z,99726.27
2019-02-09T14:09:09.498Z,99729.50
2019-02-09T14:11:39.967Z,99725.13
2019-02-09T14:14:09.559Z,99749.48
2019-02-09T14:16:39.119Z,99762.28
2019-02-09T14:19:08.677Z,99795.59
2019-02-09T14:21:39.692Z,99787.42
2019-02-09T14:24:10.467Z,99801.41
2019-02-09T14:26:41.155Z,99848.77
2019-02-09T14:29:10.692Z,99865.73
2019-02-09T14:31:40.023Z,99853.40
2019-02-09T14:34:09.553Z,99808.72
2019-02-09T14:36:38.898Z,99797.77
2019-02-09T14:39:10.413Z,99798.22
2019-02-09T14:41:39.940Z,99789.40
2019-02-09T14:44:09.559Z,99792.78
2019-02-09T14:46:39.981Z,99796.00
2019-02-09T14:49:09.605Z,99806.55
2019-02-09T14:51:38.979Z,99794.50
2019-02-09T14:54:09.643Z,99813.47
2019-02-09T14:56:39.270Z,99794.72
2019-02-09T14:59:08.804Z,99791.98
2019-02-09T15:01:38.235Z,99777.77
2019-02-09T15:04:07.786Z,99791.96
2019-02-09T15:06:37.580Z,99782.23
2019-02-09T15:09:08.426Z,99794.11
2019-02-09T15:11:37.799Z,99792.58
2019-02-09T15:14:07.211Z,99805.20
2019-02-09T15:16:37.032Z,99792.14
2019-02-09T15:19:06.341Z,99807.35
2019-02-09T15:21:35.990Z,99810.40
2019-02-09T15:24:05.896Z,99822.23
2019-02-09T15:26:35.512Z,99809.78
2019-02-09T15:29:05.459Z,99818.53
2019-02-09T15:31:35.491Z,99799.41
2019-02-09T15:34:10.110Z,99807.53
2019-02-09T15:36:37.266Z,99807.53
2019-02-09T15:39:08.295Z,99806.38
2019-02-09T15:41:42.304Z,99796.79
2019-02-09T15:44:11.677Z,99813.16
2019-02-09T15:46:41.312Z,99822.57
2019-02-09T15:49:10.893Z,99823.55
2019-02-09T15:51:40.554Z,99825.87
2019-02-09T15:54:10.202Z,99829.28
2019-02-09T15:56:39.823Z,99818.79
2019-02-09T15:59:15.671Z,99817.16
2019-02-09T16:01:48.285Z,99807.75
2019-02-09T16:04:18.300Z,99822.27
2019-02-09T16:06:47.740Z,99841.67
2019-02-09T16:09:17.388Z,99842.25
2019-02-09T16:11:47.024Z,99850.42
2019-02-09T16:14:16.367Z,99852.45
2019-02-09T16:16:45.807Z,99843.77
2019-02-09T16:19:15.379Z,99851.62
2019-02-09T16:21:44.971Z,99851.40
2019-02-09T16:24:14.329Z,99855.80
2019-02-09T16:26:43.656Z,99861.50
2019-02-09T16:29:13.330Z,99865.20
2019-02-09T16:31:42.855Z,99859.17
2019-02-09T16:34:12.327Z,99868.58
2019-02-09T16:36:42.001Z,99879.34
2019-02-09T16:39:11.332Z,99880.06
2019-02-09T16:41:40.706Z,99902.70
2019-02-09T16:44:10.328Z,99889.73
2019-02-09T16:46:39.677Z,99891.76
2019-02-09T16:49:09.295Z,99887.62
2019-02-09T16:51:38.640Z,99919.89
2019-02-09T16:54:08.259Z,99898.18
2019-02-09T16:56:37.893Z,99928.46
2019-02-09T16:59:07.471Z,99953.55
2019-02-09T17:01:36.839Z,99912.31
2019-02-09T17:04:06.387Z,99924.05
2019-02-09T17:06:36.298Z,99942.63
2019-02-09T17:09:07.477Z,99940.78
2019-02-09T17:11:37.087Z,99944.57
2019-02-09T17:14:07.094Z,99969.45
2019-02-09T17:16:36.788Z,99969.45
2019-02-09T17:19:06.422Z,99948.21
2019-02-09T17:21:35.792Z,99946.48
2019-02-09T17:24:06.493Z,99949.38
2019-02-09T17:26:36.508Z,99957.74
2019-02-09T17:29:05.874Z,99960.88
2019-02-09T17:31:35.827Z,99961.61
2019-02-09T17:34:05.478Z,99971.14
2019-02-09T17:36:35.252Z,99974.89
2019-02-09T17:39:06.352Z,99974.64
2019-02-09T17:41:36.013Z,99965.86
2019-02-09T17:44:13.079Z,99973.69
2019-02-09T17:46:42.735Z,99980.54
2019-02-09T17:49:12.051Z,99982.51
2019-02-09T17:51:42.009Z,99986.18
2019-02-09T17:54:11.465Z,99980.21
2019-02-09T17:56:40.832Z,99996.22
2019-02-09T17:59:10.753Z,99996.22
2019-02-09T18:01:40.410Z,100008.30
2019-02-09T18:04:09.985Z,100010.63
2019-02-09T18:06:39.638Z,100015.86
2019-02-09T18:09:09.041Z,100015.86
2019-02-09T18:11:38.763Z,100026.59
2019-02-09T18:14:08.155Z,100033.07
2019-02-09T18:16:37.877Z,100031.95
2019-02-09T18:19:08.509Z,100020.01
2019-02-09T18:21:37.883Z,100028.40
2019-02-09T18:24:07.210Z,100038.52
2019-02-09T18:26:39.227Z,100044.50
2019-02-09T18:29:08.738Z,100038.98
2019-02-09T18:31:38.508Z,100029.95
2019-02-09T18:34:07.836Z,100038.38
2019-02-09T18:36:37.507Z,100033.87
2019-02-09T18:39:09.710Z,100030.83
2019-02-09T18:41:41.047Z,100041.94
2019-02-09T18:44:10.674Z,100044.73
2019-02-09T18:46:40.324Z,100053.05
2019-02-09T18:49:09.659Z,100049.12
2019-02-09T18:51:39.066Z,100055.47
2019-02-09T18:54:09.731Z,100054.27
2019-02-09T18:56:39.066Z,100055.74
2019-02-09T18:59:08.675Z,100061.11
2019-02-09T19:01:38.293Z,100070.88
2019-02-09T19:04:07.886Z,100066.72
2019-02-09T19:06:37.210Z,100077.46
2019-02-09T19:09:07.933Z,100073.67
2019-02-09T19:11:37.808Z,100062.23
2019-02-09T19:14:09.878Z,100062.23
2019-02-09T19:16:39.214Z,100090.52
2019-02-09T19:19:09.083Z,100111.41
2019-02-09T19:21:38.754Z,100088.07
2019-02-09T19:24:08.093Z,100089.55
2019-02-09T19:26:37.708Z,100102.38
2019-02-09T19:29:07.062Z,100106.40
2019-02-09T19:31:36.686Z,100106.40
2019-02-09T19:34:06.114Z,100104.08
2019-02-09T19:36:36.398Z,100099.31
2019-02-09T19:39:07.508Z,100102.38
2019-02-09T19:41:37.293Z,100093.81
2019-02-09T19:44:06.873Z,100105.30
2019-02-09T19:46:36.513Z,100098.20
2019-02-09T19:49:06.000Z,100105.89
2019-02-09T19:51:37.156Z,100114.45
2019-02-09T19:54:06.721Z,100128.13
2019-02-09T19:56:36.342Z,100129.00
2019-02-09T19:59:05.906Z,100119.38
2019-02-09T20:01:35.240Z,100123.99
2019-02-09T20:04:05.214Z,100124.86
2019-02-09T20:06:35.120Z,100128.50
2019-02-09T20:09:06.852Z,100135.85
2019-02-09T20:11:36.550Z,100138.17
2019-02-09T20:14:05.968Z,100135.83
2019-02-09T20:16:35.341Z,100175.02
2019-02-09T20:19:05.252Z,100138.16
2019-02-09T20:21:35.853Z,100137.92
2019-02-09T20:24:05.809Z,100140.61
2019-02-09T20:26:35.189Z,100128.16
2019-02-09T20:29:04.707Z,100128.16
2019-02-09T20:31:35.245Z,100137.80
2019-02-09T20:34:06.334Z,100134.74
2019-02-09T20:36:35.954Z,100152.93
2019-02-09T20:39:07.942Z,100152.93
2019-02-09T20:41:37.629Z,100147.05
2019-02-09T20:44:07.003Z,100138.66
2019-02-09T20:46:36.575Z,100158.43
2019-02-09T20:49:06.251Z,100166.86
2019-02-09T20:51:36.167Z,100166.48
2019-02-09T20:54:05.873Z,100171.97
2019-02-09T20:56:35.273Z,100166.95
2019-02-09T20:59:04.982Z,100159.61
2019-02-09T21:01:35.565Z,100162.16
2019-02-09T21:04:04.994Z,100166.91
2019-02-09T21:06:35.276Z,100170.77
2019-02-09T21:09:07.488Z,100170.77
2019-02-09T21:11:37.169Z,100162.32
2019-02-09T21:14:07.098Z,100163.79
2019-02-09T21:16:36.429Z,100165.50
2019-02-09T21:19:06.680Z,100159.52
2019-02-09T21:21:36.295Z,100157.81
2019-02-09T21:24:07.373Z,100150.98
2019-02-09T21:26:37.260Z,100150.98
2019-02-09T21:29:06.601Z,100160.16
2019-02-09T21:31:36.271Z,100165.63
2019-02-09T21:34:05.978Z,100157.92
2019-02-09T21:36:35.476Z,100159.52
2019-02-09T21:39:07.737Z,100151.38
2019-02-09T21:41:37.257Z,100147.35
2019-02-09T21:44:06.656Z,100155.02
2019-02-09T21:46:36.318Z,100148.32
2019-02-09T21:49:06.286Z,100145.98
2019-02-09T21:51:35.932Z,100151.72
2019-02-09T21:54:05.364Z,100152.72
2019-02-09T21:56:35.616Z,100156.73
2019-02-09T21:59:05.466Z,100149.31
2019-02-09T22:01:35.550Z,100149.31
2019-02-09T22:04:05.238Z,100149.16
2019-02-09T22:06:35.426Z,100149.16
2019-02-09T22:09:07.553Z,100152.22
2019-02-09T22:11:37.508Z,100146.38
2019-02-09T22:14:07.223Z,100153.20
2019-02-09T22:16:36.920Z,100149.31
2019-02-09T22:19:06.556Z,100150.15
2019-02-09T22:21:36.626Z,100148.60
2019-02-09T22:24:06.222Z,100153.24
2019-02-09T22:26:35.561Z,100148.48
2019-02-09T22:29:05.200Z,100141.66
2019-02-09T22:31:35.550Z,100139.94
2019-02-09T22:34:05.331Z,100144.34
2019-02-09T22:36:37.144Z,100139.45
2019-02-09T22:39:07.671Z,100144.95
2019-02-09T22:41:37.609Z,100154.24
2019-02-09T22:44:07.234Z,100144.95
2019-02-09T22:46:36.912Z,100141.19
2019-02-09T22:49:06.247Z,100147.39
2019-02-09T22:51:35.586Z,100152.53
2019-02-09T22:54:05.782Z,100143.03
2019-02-09T22:56:35.748Z,100143.03
2019-02-09T22:59:05.366Z,100148.13
2019-02-09T23:01:41.451Z,100148.13
2019-02-09T23:04:14.502Z,100142.91
2019-02-09T23:06:53.232Z,100137.56
2019-02-09T23:09:22.583Z,100135.73
2019-02-09T23:11:51.948Z,100139.63
2019-02-09T23:14:21.757Z,100139.03
2019-02-09T23:16:51.377Z,100137.08
2019-02-09T23:19:20.967Z,100128.15
2019-02-09T23:21:50.783Z,100130.73
2019-02-09T23:24:20.277Z,100119.48
2019-02-09T23:26:49.904Z,100119.48
2019-02-09T23:29:19.664Z,100115.59
2019-02-09T23:31:49.290Z,100111.43
2019-02-09T23:34:19.704Z,100115.45
2019-02-09T23:36:49.331Z,100111.94
2019-02-09T23:39:18.690Z,100107.53
2019-02-09T23:41:48.880Z,100104.61
2019-02-09T23:44:18.692Z,100112.30
2019-02-09T23:46:48.615Z,100112.30
2019-02-09T23:49:18.253Z,100098.73
2019-02-09T23:51:47.949Z,100098.73
2019-02-09T23:54:17.379Z,100109.38
2019-02-09T23:56:47.000Z,100104.25
2019-02-09T23:59:16.522Z,100106.09
